Time,TemperatureF,DewpointF,PressureIn,WindDirection,WindDirectionDegrees,WindSpeedMPH,WindSpeedGustMPH,Humidity,HourlyPrecipIn,Conditions,Clouds,dailyrainin,SoftwareType,DateUTC
2013-01-25 00:04:00,14.0,-99.9,31.15,South,186,5.0,14.0,-999,-99.99,,,-99.99,,2013-01-25 05:04:00,
2013-01-25 00:12:00,14.0,-99.9,30.44,South,186,5.0,14.0,-999,-99.99,,,-99.99,,2013-01-25 05:12:00,
2013-01-25 00:22:00,14.0,-99.9,30.44,South,186,5.0,14.0,-999,-99.99,,,-99.99,,2013-01-25 05:22:00,
2013-01-25 00:32:00,14.0,-99.9,30.44,South,186,5.0,14.0,-999,-99.99,,,-99.99,,2013-01-25 05:32:00,
2013-01-25 01:02:00,14.0,-99.9,31.13,South,184,5.0,13.0,-999,-99.99,,,-99.99,,2013-01-25 06:02:00,
2013-01-25 01:12:00,14.0,-99.9,30.42,South,184,5.0,13.0,-999,-99.99,,,-99.99,,2013-01-25 06:12:00,
2013-01-25 01:22:00,14.0,-99.9,30.42,South,184,5.0,13.0,-999,-99.99,,,-99.99,,2013-01-25 06:22:00,
2013-01-25 01:32:00,14.0,-99.9,31.11,South,183,5.0,16.0,-999,-99.99,,,-99.99,,2013-01-25 06:32:00,
2013-01-25 01:40:00,14.0,-99.9,30.37,South,182,8.0,15.0,-999,-99.99,,,-99.99,,2013-01-25 06:40:00,
2013-01-25 01:42:00,14.0,-99.9,30.40,South,183,5.0,16.0,-999,-99.99,,,-99.99,,2013-01-25 06:42:00,
2013-01-25 01:52:00,14.0,-99.9,31.11,South,183,5.0,16.0,-999,-99.99,,,-99.99,,2013-01-25 06:52:00,
2013-01-25 02:02:00,14.0,-99.9,31.07,South,182,8.0,15.0,-999,-99.99,,,-99.99,,2013-01-25 07:02:00,
2013-01-25 02:11:00,14.0,-99.9,30.37,South,182,8.0,15.0,-999,-99.99,,,-99.99,,2013-01-25 07:11:00,
2013-01-25 02:22:00,14.0,-99.9,30.37,South,182,8.0,15.0,-999,-99.99,,,-99.99,,2013-01-25 07:22:00,
2013-01-25 02:32:00,14.0,-99.9,30.37,South,182,8.0,15.0,-999,-99.99,,,-99.99,,2013-01-25 07:32:00,
2013-01-25 02:40:00,15.0,-99.9,30.34,South,191,8.0,17.0,-999,-99.99,,,-99.99,,2013-01-25 07:40:00,
2013-01-25 03:02:00,15.0,-99.9,31.04,South,191,8.0,17.0,-999,-99.99,,,-99.99,,2013-01-25 08:02:00,
2013-01-25 03:12:00,15.0,-99.9,30.34,South,191,8.0,17.0,-999,-99.99,,,-99.99,,2013-01-25 08:12:00,
2013-01-25 03:22:00,15.0,-99.9,30.34,South,191,8.0,17.0,-999,-99.99,,,-99.99,,2013-01-25 08:22:00,
2013-01-25 03:32:00,15.0,-99.9,30.34,South,191,8.0,17.0,-999,-99.99,,,-99.99,,2013-01-25 08:32:00,
2013-01-25 04:02:00,14.0,-99.9,31.01,SSW,193,9.0,21.0,-999,-99.99,,,-99.99,,2013-01-25 09:02:00,
2013-01-25 04:11:00,14.0,-99.9,30.31,SSW,193,9.0,21.0,-999,-99.99,,,-99.99,,2013-01-25 09:11:00,
2013-01-25 04:21:00,14.0,-99.9,30.31,SSW,193,9.0,21.0,-999,-99.99,,,-99.99,,2013-01-25 09:21:00,
2013-01-25 04:32:00,14.0,-99.9,31.01,SSW,193,9.0,21.0,-999,-99.99,,,-99.99,,2013-01-25 09:32:00,
2013-01-25 04:42:00,14.0,-99.9,31.01,SSW,193,9.0,21.0,-999,-99.99,,,-99.99,,2013-01-25 09:42:00,
2013-01-25 04:52:00,14.0,-99.9,30.31,SSW,193,9.0,21.0,-999,-99.99,,,-99.99,,2013-01-25 09:52:00,
2013-01-25 05:02:00,15.0,-99.9,30.27,South,176,8.0,19.0,-999,-99.99,,,-99.99,,2013-01-25 10:02:00,
2013-01-25 05:12:00,15.0,-99.9,30.27,South,176,8.0,19.0,-999,-99.99,,,-99.99,,2013-01-25 10:12:00,
2013-01-25 05:22:00,15.0,-99.9,30.27,South,176,8.0,19.0,-999,-99.99,,,-99.99,,2013-01-25 10:22:00,
2013-01-25 05:32:00,15.0,-99.9,30.97,South,176,8.0,22.0,-999,-99.99,,,-99.99,,2013-01-25 10:32:00,
2013-01-25 05:42:00,15.0,-99.9,30.27,South,176,8.0,22.0,-999,-99.99,,,-99.99,,2013-01-25 10:42:00,
2013-01-25 05:52:00,15.0,-99.9,30.27,South,176,8.0,22.0,-999,-99.99,,,-99.99,,2013-01-25 10:52:00,
2013-01-25 06:03:00,14.0,-99.9,30.93,South,176,9.0,19.0,-999,-99.99,,,-99.99,,2013-01-25 11:03:00,
2013-01-25 06:11:00,14.0,-99.9,30.23,South,176,9.0,19.0,-999,-99.99,,,-99.99,,2013-01-25 11:11:00,
2013-01-25 06:22:00,14.0,-99.9,30.23,South,176,9.0,19.0,-999,-99.99,,,-99.99,,2013-01-25 11:22:00,
2013-01-25 06:33:00,14.0,-99.9,30.92,South,172,10.0,19.0,-999,-99.99,,,-99.99,,2013-01-25 11:33:00,
2013-01-25 06:42:00,14.0,-99.9,30.22,South,172,10.0,19.0,-999,-99.99,,,-99.99,,2013-01-25 11:42:00,
2013-01-25 06:52:00,14.0,-99.9,30.22,South,172,10.0,19.0,-999,-99.99,,,-99.99,,2013-01-25 11:52:00,
2013-01-25 07:03:00,15.0,-99.9,30.90,South,174,10.0,19.0,-999,-99.99,,,-99.99,,2013-01-25 12:03:00,
2013-01-25 07:12:00,15.0,-99.9,30.20,South,174,10.0,19.0,-999,-99.99,,,-99.99,,2013-01-25 12:12:00,
2013-01-25 07:22:00,15.0,-99.9,30.20,South,174,10.0,19.0,-999,-99.99,,,-99.99,,2013-01-25 12:22:00,
2013-01-25 07:33:00,15.0,-99.9,30.88,South,182,9.0,23.0,-999,-99.99,,,-99.99,,2013-01-25 12:33:00,
2013-01-25 07:42:00,15.0,-99.9,30.18,South,182,9.0,23.0,-999,-99.99,,,-99.99,,2013-01-25 12:42:00,
2013-01-25 07:53:00,15.0,-99.9,30.18,South,182,9.0,23.0,-999,-99.99,,,-99.99,,2013-01-25 12:53:00,
2013-01-25 08:03:00,15.0,-99.9,30.85,SSE,167,10.0,22.0,-999,-99.99,,,-99.99,,2013-01-25 13:03:00,
2013-01-25 08:12:00,15.0,-99.9,30.15,SSE,167,10.0,22.0,-999,-99.99,,,-99.99,,2013-01-25 13:12:00,
2013-01-25 08:22:00,15.0,-99.9,30.15,SSE,167,10.0,22.0,-999,-99.99,,,-99.99,,2013-01-25 13:22:00,
2013-01-25 08:33:00,16.0,-99.9,30.84,South,172,9.0,22.0,-999,-99.99,,,-99.99,,2013-01-25 13:33:00,
2013-01-25 08:43:00,16.0,-99.9,30.84,South,172,9.0,22.0,-999,-99.99,,,-99.99,,2013-01-25 13:43:00,
2013-01-25 08:53:00,16.0,-99.9,30.14,South,172,9.0,22.0,-999,-99.99,,,-99.99,,2013-01-25 13:53:00,
2013-01-25 09:03:00,16.0,-99.9,30.83,South,173,7.0,22.0,-999,-99.99,,,-99.99,,2013-01-25 14:03:00,
2013-01-25 09:13:00,16.0,-99.9,30.13,South,173,7.0,22.0,-999,-99.99,,,-99.99,,2013-01-25 14:13:00,
2013-01-25 09:23:00,16.0,-99.9,30.82,South,184,11.0,23.0,-999,-99.99,,,-99.99,,2013-01-25 14:23:00,
2013-01-25 09:33:00,16.0,-99.9,30.12,South,184,11.0,23.0,-999,-99.99,,,-99.99,,2013-01-25 14:33:00,
2013-01-25 09:42:00,16.0,-99.9,30.12,South,184,11.0,23.0,-999,-99.99,,,-99.99,,2013-01-25 14:42:00,
2013-01-25 09:53:00,16.0,-99.9,30.82,South,184,11.0,23.0,-999,-99.99,,,-99.99,,2013-01-25 14:53:00,
2013-01-25 10:03:00,16.0,-99.9,30.79,South,172,9.0,22.0,-999,-99.99,,,-99.99,,2013-01-25 15:03:00,
2013-01-25 10:13:00,16.0,-99.9,30.09,South,172,9.0,22.0,-999,-99.99,,,-99.99,,2013-01-25 15:13:00,
2013-01-25 10:23:00,16.0,-99.9,30.79,South,183,14.0,26.0,-999,-99.99,,,-99.99,,2013-01-25 15:23:00,
2013-01-25 10:33:00,16.0,-99.9,30.09,South,183,14.0,26.0,-999,-99.99,,,-99.99,,2013-01-25 15:33:00,
2013-01-25 10:43:00,16.0,-99.9,30.09,South,183,14.0,26.0,-999,-99.99,,,-99.99,,2013-01-25 15:43:00,
2013-01-25 10:53:00,16.0,-99.9,30.09,South,183,14.0,26.0,-999,-99.99,,,-99.99,,2013-01-25 15:53:00,
2013-01-25 11:04:00,17.0,-99.9,30.77,South,183,5.0,17.0,-999,-99.99,,,-99.99,,2013-01-25 16:04:00,
2013-01-25 11:12:00,17.0,-99.9,30.07,South,183,5.0,17.0,-999,-99.99,,,-99.99,,2013-01-25 16:12:00,
2013-01-25 11:23:00,16.0,-99.9,30.09,South,183,14.0,26.0,-999,-99.99,,,-99.99,,2013-01-25 16:23:00,
2013-01-25 11:33:00,17.0,-99.9,30.76,South,172,7.0,25.0,-999,-99.99,,,-99.99,,2013-01-25 16:33:00,
2013-01-25 11:43:00,17.0,-99.9,30.06,South,172,7.0,25.0,-999,-99.99,,,-99.99,,2013-01-25 16:43:00,
2013-01-25 11:53:00,17.0,-99.9,30.06,South,172,7.0,25.0,-999,-99.99,,,-99.99,,2013-01-25 16:53:00,
2013-01-25 12:03:00,18.0,-99.9,30.75,South,177,10.0,29.0,-999,-99.99,,,-99.99,,2013-01-25 17:03:00,
2013-01-25 12:12:00,18.0,-99.9,30.05,South,177,10.0,29.0,-999,-99.99,,,-99.99,,2013-01-25 17:12:00,
2013-01-25 12:23:00,18.0,-99.9,30.05,South,177,10.0,29.0,-999,-99.99,,,-99.99,,2013-01-25 17:23:00,
2013-01-25 12:33:00,18.0,-99.9,30.73,South,181,8.0,29.0,-999,-99.99,,,-99.99,,2013-01-25 17:33:00,
2013-01-25 12:43:00,18.0,-99.9,30.03,South,181,8.0,29.0,-999,-99.99,,,-99.99,,2013-01-25 17:43:00,
2013-01-25 12:53:00,18.0,-99.9,30.73,South,181,8.0,29.0,-999,-99.99,,,-99.99,,2013-01-25 17:53:00,
2013-01-25 13:04:00,19.0,-99.9,30.71,SSE,166,7.0,18.0,-999,-99.99,,,-99.99,,2013-01-25 18:04:00,
2013-01-25 13:12:00,19.0,-99.9,30.01,SSE,166,7.0,18.0,-999,-99.99,,,-99.99,,2013-01-25 18:12:00,
2013-01-25 13:24:00,19.0,-99.9,30.01,SSE,166,7.0,18.0,-999,-99.99,,,-99.99,,2013-01-25 18:24:00,
2013-01-25 13:33:00,19.0,-99.9,30.01,SSE,166,7.0,18.0,-999,-99.99,,,-99.99,,2013-01-25 18:33:00,
2013-01-25 13:40:00,19.0,-99.9,29.97,South,187,6.0,19.0,-999,-99.99,,,-99.99,,2013-01-25 18:40:00,
2013-01-25 13:43:00,19.0,-99.9,30.67,South,174,9.0,23.0,-999,-99.99,,,-99.99,,2013-01-25 18:43:00,
2013-01-25 13:53:00,19.0,-99.9,29.97,South,174,9.0,23.0,-999,-99.99,,,-99.99,,2013-01-25 18:53:00,
2013-01-25 14:03:00,19.0,-99.9,30.67,South,187,6.0,19.0,-999,-99.99,,,-99.99,,2013-01-25 19:03:00,
2013-01-25 14:12:00,19.0,-99.9,29.97,South,187,6.0,19.0,-999,-99.99,,,-99.99,,2013-01-25 19:12:00,
2013-01-25 14:23:00,19.0,-99.9,29.97,South,187,6.0,19.0,-999,-99.99,,,-99.99,,2013-01-25 19:23:00,
2013-01-25 14:33:00,19.0,-99.9,29.97,South,187,6.0,19.0,-999,-99.99,,,-99.99,,2013-01-25 19:33:00,
2013-01-25 14:40:00,20.0,-99.9,29.95,SSE,165,7.0,15.0,-999,-99.99,,,-99.99,,2013-01-25 19:40:00,
2013-01-25 15:03:00,20.0,-99.9,30.65,SSE,165,7.0,15.0,-999,-99.99,,,-99.99,,2013-01-25 20:03:00,
2013-01-25 15:13:00,20.0,-99.9,29.95,SSE,165,7.0,15.0,-999,-99.99,,,-99.99,,2013-01-25 20:13:00,
2013-01-25 15:23:00,20.0,-99.9,29.95,SSE,165,7.0,15.0,-999,-99.99,,,-99.99,,2013-01-25 20:23:00,
2013-01-25 15:33:00,20.0,-99.9,29.95,SSE,165,7.0,15.0,-999,-99.99,,,-99.99,,2013-01-25 20:33:00,
2013-01-25 15:40:00,20.0,-99.9,29.94,South,176,6.0,14.0,-999,-99.99,,,-99.99,,2013-01-25 20:40:00,
2013-01-25 16:02:00,20.0,-99.9,30.64,South,176,6.0,14.0,-999,-99.99,,,-99.99,,2013-01-25 21:02:00,
2013-01-25 16:12:00,20.0,-99.9,29.94,South,176,6.0,14.0,-999,-99.99,,,-99.99,,2013-01-25 21:12:00,
2013-01-25 16:23:00,20.0,-99.9,29.94,South,176,6.0,14.0,-999,-99.99,,,-99.99,,2013-01-25 21:23:00,
2013-01-25 16:33:00,20.0,-99.9,29.94,South,176,6.0,14.0,-999,-99.99,,,-99.99,,2013-01-25 21:33:00,
2013-01-25 16:40:00,20.0,-99.9,29.95,South,178,5.0,13.0,-999,-99.99,,,-99.99,,2013-01-25 21:40:00,
2013-01-25 17:03:00,20.0,-99.9,30.65,South,178,5.0,13.0,-999,-99.99,,,-99.99,,2013-01-25 22:03:00,
2013-01-25 17:12:00,20.0,-99.9,29.95,South,178,5.0,13.0,-999,-99.99,,,-99.99,,2013-01-25 22:12:00,
2013-01-25 17:23:00,20.0,-99.9,29.95,South,178,5.0,13.0,-999,-99.99,,,-99.99,,2013-01-25 22:23:00,
2013-01-25 17:33:00,20.0,-99.9,29.95,South,178,5.0,13.0,-999,-99.99,,,-99.99,,2013-01-25 22:33:00,
2013-01-25 18:02:00,20.0,-99.9,30.67,South,181,6.0,12.0,-999,-99.99,,,-99.99,,2013-01-25 23:02:00,
2013-01-25 18:12:00,20.0,-99.9,29.97,South,181,6.0,12.0,-999,-99.99,,,-99.99,,2013-01-25 23:12:00,
2013-01-25 18:22:00,20.0,-99.9,29.97,South,181,6.0,12.0,-999,-99.99,,,-99.99,,2013-01-25 23:22:00,
2013-01-25 18:32:00,20.0,-99.9,29.97,South,181,6.0,12.0,-999,-99.99,,,-99.99,,2013-01-25 23:32:00,
2013-01-25 18:42:00,20.0,-99.9,29.97,South,181,4.0,22.0,-999,-99.99,,,-99.99,,2013-01-25 23:42:00,
2013-01-25 18:53:00,20.0,-99.9,29.97,South,181,4.0,22.0,-999,-99.99,,,-99.99,,2013-01-25 23:53:00,
2013-01-25 19:02:00,20.0,-99.9,30.68,SSW,197,4.0,10.0,-999,-99.99,,,-99.99,,2013-01-26 00:02:00,
2013-01-25 19:12:00,20.0,-99.9,29.98,SSW,197,4.0,10.0,-999,-99.99,,,-99.99,,2013-01-26 00:12:00,
2013-01-25 19:22:00,20.0,-99.9,29.98,SSW,197,4.0,10.0,-999,-99.99,,,-99.99,,2013-01-26 00:22:00,
2013-01-25 19:33:00,20.0,-99.9,30.68,SSW,193,4.0,11.0,-999,-99.99,,,-99.99,,2013-01-26 00:33:00,
2013-01-25 19:40:00,20.0,-99.9,29.98,SSW,207,7.0,13.0,-999,-99.99,,,-99.99,,2013-01-26 00:40:00,
2013-01-25 19:42:00,20.0,-99.9,29.98,SSW,193,4.0,11.0,-999,-99.99,,,-99.99,,2013-01-26 00:42:00,
2013-01-25 19:53:00,20.0,-99.9,30.68,SSW,193,4.0,11.0,-999,-99.99,,,-99.99,,2013-01-26 00:53:00,
2013-01-25 20:02:00,20.0,-99.9,30.68,SSW,207,7.0,13.0,-999,-99.99,,,-99.99,,2013-01-26 01:02:00,
2013-01-25 20:12:00,20.0,-99.9,29.98,SSW,207,7.0,13.0,-999,-99.99,,,-99.99,,2013-01-26 01:12:00,
2013-01-25 20:22:00,20.0,-99.9,29.98,SSW,207,7.0,13.0,-999,-99.99,,,-99.99,,2013-01-26 01:22:00,
2013-01-25 20:32:00,20.0,-99.9,29.98,SSW,207,7.0,13.0,-999,-99.99,,,-99.99,,2013-01-26 01:32:00,
2013-01-25 20:40:00,20.0,-99.9,29.99,SSW,200,7.0,14.0,-999,-99.99,,,-99.99,,2013-01-26 01:40:00,
2013-01-25 21:02:00,20.0,-99.9,30.69,SSW,200,7.0,14.0,-999,-99.99,,,-99.99,,2013-01-26 02:02:00,
2013-01-25 21:12:00,20.0,-99.9,29.99,SSW,200,7.0,14.0,-999,-99.99,,,-99.99,,2013-01-26 02:12:00,
2013-01-25 21:22:00,20.0,-99.9,29.99,SSW,200,7.0,14.0,-999,-99.99,,,-99.99,,2013-01-26 02:22:00,
2013-01-25 21:32:00,20.0,-99.9,29.99,SSW,200,7.0,14.0,-999,-99.99,,,-99.99,,2013-01-26 02:32:00,
2013-01-25 21:40:00,19.0,-99.9,29.99,SSW,196,4.0,8.0,-999,-99.99,,,-99.99,,2013-01-26 02:40:00,
2013-01-25 22:02:00,19.0,-99.9,30.69,SSW,196,4.0,8.0,-999,-99.99,,,-99.99,,2013-01-26 03:02:00,
2013-01-25 22:12:00,19.0,-99.9,29.99,SSW,196,4.0,8.0,-999,-99.99,,,-99.99,,2013-01-26 03:12:00,
2013-01-25 22:22:00,19.0,-99.9,29.99,SSW,196,4.0,8.0,-999,-99.99,,,-99.99,,2013-01-26 03:22:00,
2013-01-25 22:32:00,19.0,-99.9,29.99,SSW,196,4.0,8.0,-999,-99.99,,,-99.99,,2013-01-26 03:32:00,
2013-01-25 22:40:00,23.0,-99.9,30.01,NW,309,16.0,20.0,-999,-99.99,,,-99.99,,2013-01-26 03:40:00,
2013-01-25 23:02:00,23.0,-99.9,30.71,NW,309,16.0,20.0,-999,-99.99,,,-99.99,,2013-01-26 04:02:00,
2013-01-25 23:12:00,23.0,-99.9,30.01,NW,309,16.0,20.0,-999,-99.99,,,-99.99,,2013-01-26 04:12:00,
2013-01-25 23:22:00,23.0,-99.9,30.01,NW,309,16.0,20.0,-999,-99.99,,,-99.99,,2013-01-26 04:22:00,
2013-01-25 23:32:00,23.0,-99.9,30.01,NW,309,16.0,20.0,-999,-99.99,,,-99.99,,2013-01-26 04:32:00,
2013-01-25 23:40:00,23.0,-99.9,30.02,NW,318,15.0,20.0,-999,-99.99,,,-99.99,,2013-01-26 04:40:00,